Time;durP1;ratioP1;P1;durP2;ratioP2;P2;SDS_P1;SDS_P2;PMS_P1;PMS_P2;Temp;Humidity;BMP_temperature;BMP_pressure;BME280_temperature;BME280_humidity;BME280_pressure;Samples;Min_cycle;Max_cycle;Signal;HPM_P1;HPM_P2
2022/06/15 00:00:18;;;;;;;11.50;3.60;;;;;;;10.88;100.00;100087.61;105091;1268;69736;-71
2022/06/15 00:03:05;;;;;;;11.20;3.40;;;;;;;10.88;100.00;100085.63;105241;1265;73567;-69
2022/06/15 00:06:17;;;;;;;11.30;3.10;;;;;;;10.89;100.00;100087.00;105089;1265;61460;-71
2022/06/15 00:09:10;;;;;;;9.50;3.10;;;;;;;10.89;100.00;100086.30;105392;1265;60444;-68
2022/06/15 00:11:57;;;;;;;9.20;3.40;;;;;;;10.89;100.00;100086.77;105129;1268;73878;-68
2022/06/15 00:14:44;;;;;;;8.00;2.60;;;;;;;10.88;100.00;100087.38;105541;1265;69566;-67
2022/06/15 00:17:31;;;;;;;10.20;2.50;;;;;;;10.88;100.00;100088.48;105287;1268;73694;-69
2022/06/15 00:20:18;;;;;;;10.10;3.00;;;;;;;10.87;100.00;100086.81;105327;1265;61379;-68
2022/06/15 00:23:05;;;;;;;12.10;3.10;;;;;;;10.86;100.00;100084.38;105502;1268;60593;-68
2022/06/15 00:25:52;;;;;;;11.70;3.00;;;;;;;10.85;100.00;100084.05;105385;1265;75418;-66
2022/06/15 00:28:39;;;;;;;11.70;2.90;;;;;;;10.85;100.00;100083.56;105215;1265;69466;-67
2022/06/15 00:31:26;;;;;;;9.70;2.90;;;;;;;10.84;100.00;100081.48;105251;1265;73426;-67
2022/06/15 00:34:12;;;;;;;13.90;3.20;;;;;;;10.84;100.00;100081.89;105162;1265;61267;-70
2022/06/15 00:37:01;;;;;;;8.80;2.80;;;;;;;10.83;100.00;100087.83;105430;1265;60382;-70
2022/06/15 00:39:49;;;;;;;14.40;3.90;;;;;;;10.82;100.00;100086.64;105273;1265;74594;-67
2022/06/15 00:42:37;;;;;;;10.90;3.20;;;;;;;10.82;100.00;100090.41;105249;1265;68505;-68
2022/06/15 00:45:23;;;;;;;12.10;3.60;;;;;;;10.81;100.00;100092.55;105144;1265;73450;-68
2022/06/15 00:48:11;;;;;;;9.50;3.10;;;;;;;10.81;100.00;100093.67;105237;1265;61247;-68
2022/06/15 00:50:58;;;;;;;10.70;3.20;;;;;;;10.80;100.00;100090.03;105305;1265;60542;-68
2022/06/15 00:53:46;;;;;;;11.00;3.50;;;;;;;10.79;100.00;100091.32;105220;1268;74626;-70
2022/06/15 00:56:35;;;;;;;9.70;3.30;;;;;;;10.78;100.00;100090.89;105204;1265;68582;-67
2022/06/15 01:00:03;;;;;;;11.70;3.50;;;;;;;10.77;100.00;100092.05;105336;1265;74389;-67
2022/06/15 01:02:50;;;;;;;9.70;3.20;;;;;;;10.75;100.00;100095.35;104965;1271;61157;-66
2022/06/15 01:06:01;;;;;;;9.80;3.30;;;;;;;10.73;100.00;100093.18;104857;1271;60556;-67
2022/06/15 01:08:58;;;;;;;8.00;2.90;;;;;;;10.72;100.00;100092.05;104819;1274;74189;-69
2022/06/15 01:12:29;;;;;;;9.80;3.30;;;;;;;10.70;100.00;100090.92;104731;1271;66506;-67
2022/06/15 01:15:55;;;;;;;12.00;3.40;;;;;;;10.68;100.00;100089.69;104733;1272;74401;-66
2022/06/15 01:18:41;;;;;;;10.70;3.30;;;;;;;10.67;100.00;100089.60;104867;1271;60702;-67
2022/06/15 01:22:09;;;;;;;10.20;3.10;;;;;;;10.65;100.00;100091.33;104934;1271;60702;-67
2022/06/15 01:25:33;;;;;;;12.60;3.60;;;;;;;10.64;100.00;100091.97;104885;1272;75562;-67
2022/06/15 01:28:46;;;;;;;12.20;3.60;;;;;;;10.62;100.00;100094.77;104961;1271;68526;-68
2022/06/15 01:32:39;;;;;;;10.10;3.30;;;;;;;10.60;100.00;100094.23;104904;1271;73427;-67
2022/06/15 01:35:56;;;;;;;9.40;3.40;;;;;;;10.58;100.00;100095.26;105263;1271;60553;-67
2022/06/15 01:39:04;;;;;;;11.20;2.70;;;;;;;10.57;100.00;100095.16;104865;1271;62192;-68
2022/06/15 01:42:05;;;;;;;8.90;3.20;;;;;;;10.57;100.00;100096.05;105079;1271;75837;-68
2022/06/15 01:45:02;;;;;;;8.30;3.00;;;;;;;10.56;100.00;100096.11;104747;1271;67090;-68
2022/06/15 01:47:52;;;;;;;10.30;3.30;;;;;;;10.56;100.00;100099.98;104902;1271;73407;-68
2022/06/15 01:50:51;;;;;;;9.90;3.60;;;;;;;10.56;100.00;100101.98;104738;1271;60535;-69
2022/06/15 01:53:46;;;;;;;10.10;3.50;;;;;;;10.55;100.00;100101.67;104828;1271;60531;-68
2022/06/15 01:56:47;;;;;;;8.50;2.90;;;;;;;10.55;100.00;100097.38;104716;1271;73638;-68
2022/06/15 02:00:14;;;;;;;10.50;3.20;;;;;;;10.55;100.00;100103.44;104784;1271;67453;-69
2022/06/15 02:03:22;;;;;;;9.30;3.20;;;;;;;10.56;100.00;100103.23;105033;1273;73284;-68
2022/06/15 02:06:46;;;;;;;12.20;3.50;;;;;;;10.56;100.00;100105.37;104765;1273;60870;-64
2022/06/15 02:09:37;;;;;;;9.60;3.40;;;;;;;10.56;100.00;100103.17;104883;1274;60552;-65
2022/06/15 02:12:43;;;;;;;13.30;3.40;;;;;;;10.56;100.00;100102.48;105444;1265;75404;-67
2022/06/15 02:15:30;;;;;;;10.50;3.20;;;;;;;10.58;100.00;100101.14;105248;1268;69452;-66
2022/06/15 02:18:24;;;;;;;9.90;3.10;;;;;;;10.60;100.00;100103.67;105076;1270;73489;-68
2022/06/15 02:21:15;;;;;;;9.60;3.00;;;;;;;10.61;100.00;100099.14;105194;1265;60519;-67
2022/06/15 02:24:05;;;;;;;8.20;2.60;;;;;;;10.63;100.00;100101.45;105151;1268;61031;-66
2022/06/15 02:26:52;;;;;;;9.90;2.60;;;;;;;10.65;100.00;100103.73;105099;1268;74345;-66
2022/06/15 02:29:43;;;;;;;10.50;3.10;;;;;;;10.69;100.00;100104.91;105238;1268;69436;-66
2022/06/15 02:32:30;;;;;;;10.30;2.80;;;;;;;10.72;100.00;100116.50;105152;1268;72826;-66
2022/06/15 02:35:19;;;;;;;10.10;2.90;;;;;;;10.77;100.00;100113.52;105400;1265;60549;-68
2022/06/15 02:38:07;;;;;;;8.40;2.80;;;;;;;10.82;100.00;100118.77;105092;1266;60512;-66
2022/06/15 02:40:54;;;;;;;9.30;3.00;;;;;;;10.87;100.00;100123.54;105310;1265;75811;-67
2022/06/15 02:43:42;;;;;;;8.10;2.60;;;;;;;10.93;100.00;100120.98;105102;1265;69474;-69
2022/06/15 02:46:36;;;;;;;9.50;3.20;;;;;;;10.98;100.00;100128.19;105360;1265;73901;-71
2022/06/15 02:49:23;;;;;;;10.80;2.80;;;;;;;11.04;100.00;100123.23;105125;1265;60429;-70
2022/06/15 02:52:12;;;;;;;8.90;2.70;;;;;;;11.11;100.00;100128.65;105064;1268;61570;-71
2022/06/15 02:55:00;;;;;;;9.50;2.50;;;;;;;11.14;100.00;100128.34;105082;1265;74545;-71
2022/06/15 02:57:53;;;;;;;8.90;2.70;;;;;;;11.19;100.00;100125.31;105306;1265;68670;-70
2022/06/15 03:00:44;;;;;;;7.50;2.70;;;;;;;11.24;100.00;100131.62;105224;1268;74365;-71
2022/06/15 03:03:33;;;;;;;8.50;2.70;;;;;;;11.30;100.00;100134.38;105240;1268;60546;-70
2022/06/15 03:06:43;;;;;;;9.20;2.70;;;;;;;11.37;100.00;100136.30;105331;1265;60802;-69
2022/06/15 03:09:32;;;;;;;9.10;2.60;;;;;;;11.43;100.00;100137.30;105398;1265;74552;-69
2022/06/15 03:12:26;;;;;;;8.60;2.70;;;;;;;11.48;100.00;100136.34;105235;1265;69559;-69
2022/06/15 03:15:14;;;;;;;7.90;2.30;;;;;;;11.53;100.00;100133.92;105165;1265;73404;-68
2022/06/15 03:18:01;;;;;;;10.20;2.50;;;;;;;11.60;100.00;100132.38;105321;1265;61932;-69
2022/06/15 03:20:48;;;;;;;9.00;2.90;;;;;;;11.66;100.00;100133.45;105328;1265;62098;-67
2022/06/15 03:23:38;;;;;;;8.70;2.50;;;;;;;11.73;100.00;100136.05;105253;1265;74493;-68
2022/06/15 03:26:25;;;;;;;10.50;2.90;;;;;;;11.82;100.00;100132.91;105451;1265;68717;-71
2022/06/15 03:29:12;;;;;;;9.70;2.20;;;;;;;11.91;100.00;100133.59;105328;1265;73177;-68
2022/06/15 03:32:01;;;;;;;8.90;2.30;;;;;;;12.01;99.90;100140.44;104971;1265;60477;-70
2022/06/15 03:34:48;;;;;;;10.40;2.10;;;;;;;12.10;99.29;100142.88;105090;1265;60545;-73
2022/06/15 03:37:38;;;;;;;6.40;2.30;;;;;;;12.18;98.67;100142.98;105005;1268;75257;-72
2022/06/15 03:40:47;;;;;;;7.60;2.30;;;;;;;12.26;98.26;100137.30;104920;1268;69137;-70
2022/06/15 03:43:33;;;;;;;10.10;2.10;;;;;;;12.32;97.58;100135.89;104988;1268;73787;-71
2022/06/15 03:46:23;;;;;;;8.30;2.00;;;;;;;12.42;97.13;100144.51;105073;1268;60575;-70
2022/06/15 03:49:10;;;;;;;8.50;2.00;;;;;;;12.50;96.87;100144.88;105069;1271;60386;-70
2022/06/15 03:51:57;;;;;;;6.80;1.90;;;;;;;12.58;96.30;100144.23;104927;1268;75054;-68
2022/06/15 03:54:45;;;;;;;8.60;2.30;;;;;;;12.67;95.75;100147.35;105016;1268;69640;-69
2022/06/15 03:57:32;;;;;;;7.40;1.80;;;;;;;12.73;95.24;100148.09;105084;1268;72966;-67
2022/06/15 04:00:22;;;;;;;7.80;1.70;;;;;;;12.80;94.98;100144.64;105103;1268;60504;-69
2022/06/15 04:03:10;;;;;;;7.00;2.00;;;;;;;12.86;94.50;100142.02;105002;1268;60481;-66
2022/06/15 04:06:19;;;;;;;8.10;2.10;;;;;;;12.91;93.94;100139.39;104976;1268;76669;-68
2022/06/15 04:09:09;;;;;;;6.40;1.80;;;;;;;12.98;93.69;100137.29;104996;1265;69439;-70
2022/06/15 04:11:58;;;;;;;8.60;2.30;;;;;;;13.03;93.30;100141.25;105378;1265;73241;-67
2022/06/15 04:14:49;;;;;;;12.90;2.40;;;;;;;13.12;93.02;100143.91;105364;1265;61162;-71
2022/06/15 04:17:56;;;;;;;6.30;1.80;;;;;;;13.21;92.17;100142.23;105654;1265;60367;-74
2022/06/15 04:20:59;;;;;;;9.30;2.00;;;;;;;13.32;91.58;100139.83;105112;1265;73532;-74
2022/06/15 04:23:46;;;;;;;6.50;2.20;;;;;;;13.46;90.78;100137.97;105368;1265;68482;-77
2022/06/15 04:26:34;;;;;;;9.20;2.00;;;;;;;13.67;89.88;100141.61;105319;1265;72652;-79
2022/06/15 04:29:23;;;;;;;8.40;1.80;;;;;;;13.91;87.92;100139.63;105300;1265;60449;-79
2022/06/15 04:32:09;;;;;;;8.30;1.70;;;;;;;14.20;86.59;100146.83;105285;1265;60370;-75
2022/06/15 04:34:56;;;;;;;7.90;1.70;;;;;;;14.56;84.92;100139.73;105262;1265;75153;-78
2022/06/15 04:37:43;;;;;;;6.70;1.90;;;;;;;15.00;82.57;100141.23;105410;1265;69761;-79
2022/06/15 04:40:38;;;;;;;11.80;1.70;;;;;;;15.55;80.45;100140.72;105435;1265;73111;-76
2022/06/15 04:43:25;;;;;;;6.30;1.60;;;;;;;16.19;77.65;100142.56;105198;1268;60574;-76
2022/06/15 04:46:12;;;;;;;5.90;1.30;;;;;;;16.92;75.33;100144.83;105234;1265;60588;-76
2022/06/15 04:49:01;;;;;;;8.50;1.50;;;;;;;17.79;70.69;100142.98;105917;1265;75623;-77
2022/06/15 04:51:57;;;;;;;6.80;1.60;;;;;;;18.16;66.61;100139.60;105877;1265;67913;-78
2022/06/15 04:54:45;;;;;;;5.90;1.20;;;;;;;18.32;65.22;100142.30;105444;1265;73386;-74
2022/06/15 04:57:32;;;;;;;6.30;1.90;;;;;;;18.58;65.15;100141.96;105453;1265;60359;-74
2022/06/15 05:00:24;;;;;;;7.50;1.40;;;;;;;19.01;63.48;100142.83;105247;1265;60976;-73
2022/06/15 05:03:12;;;;;;;8.40;2.30;;;;;;;19.40;61.84;100150.89;105097;1265;74873;-73
2022/06/15 05:05:59;;;;;;;6.40;1.60;;;;;;;19.76;59.48;100148.95;105308;1265;67922;-73
2022/06/15 05:08:46;;;;;;;6.80;1.20;;;;;;;19.81;57.85;100153.55;105450;1268;72712;-74
2022/06/15 05:11:33;;;;;;;6.40;1.10;;;;;;;19.72;58.44;100157.99;105107;1267;60442;-72
2022/06/15 05:14:20;;;;;;;6.40;1.30;;;;;;;19.64;57.97;100162.49;105300;1268;61496;-73
2022/06/15 05:17:12;;;;;;;6.00;1.20;;;;;;;19.72;57.84;100157.84;105082;1268;74483;-73
2022/06/15 05:19:59;;;;;;;6.60;1.30;;;;;;;19.81;57.59;100160.06;105290;1268;301154;-73
2022/06/15 05:22:54;;;;;;;7.80;1.60;;;;;;;19.73;57.30;100165.29;104963;1268;74215;-73
2022/06/15 05:25:43;;;;;;;6.80;1.30;;;;;;;19.79;57.11;100160.45;105152;1265;60648;-72
2022/06/15 05:28:30;;;;;;;6.90;1.50;;;;;;;19.64;56.40;100171.54;105099;1268;62038;-71
2022/06/15 05:31:22;;;;;;;5.30;1.30;;;;;;;19.56;56.89;100162.55;105369;1265;72077;-72
2022/06/15 05:34:13;;;;;;;6.50;1.40;;;;;;;19.28;57.81;100166.22;105057;1268;68563;-72
2022/06/15 05:37:02;;;;;;;5.80;1.20;;;;;;;19.15;58.26;100166.13;105228;1265;74042;-73
2022/06/15 05:39:53;;;;;;;7.80;1.40;;;;;;;19.03;58.54;100169.77;105067;1265;60430;-74
2022/06/15 05:42:40;;;;;;;6.30;1.50;;;;;;;19.11;59.28;100169.41;105307;1265;61146;-72
2022/06/15 05:45:26;;;;;;;7.60;1.50;;;;;;;19.30;58.61;100174.77;105110;1265;74584;-74
2022/06/15 05:48:13;;;;;;;7.10;1.50;;;;;;;19.56;57.55;100175.15;105064;1265;68100;-72
2022/06/15 05:51:02;;;;;;;7.00;1.40;;;;;;;19.74;56.61;100174.33;105078;1265;73168;-74
2022/06/15 05:53:49;;;;;;;6.30;1.30;;;;;;;19.53;56.53;100177.09;105316;1268;60556;-75
2022/06/15 05:56:35;;;;;;;7.80;2.10;;;;;;;19.37;56.70;100174.95;105095;1265;61918;-73
2022/06/15 05:59:23;;;;;;;6.50;1.30;;;;;;;19.33;57.06;100174.88;104963;1267;75600;-75
2022/06/15 06:02:11;;;;;;;7.40;1.40;;;;;;;19.39;57.35;100175.66;105017;1268;68390;-72
2022/06/15 06:04:58;;;;;;;6.40;1.30;;;;;;;19.52;57.18;100176.45;104988;1268;74319;-74
2022/06/15 06:07:44;;;;;;;5.90;1.10;;;;;;;19.52;56.55;100177.70;105529;1265;60527;-78
2022/06/15 06:10:31;;;;;;;7.40;1.20;;;;;;;19.43;56.41;100177.30;105232;1265;60476;-78
2022/06/15 06:13:17;;;;;;;6.30;1.30;;;;;;;19.50;56.85;100179.54;105714;1264;75655;-79
2022/06/15 06:16:04;;;;;;;8.00;1.50;;;;;;;19.71;56.89;100172.14;105546;1264;69600;-81
2022/06/15 06:18:51;;;;;;;6.30;1.40;;;;;;;19.85;56.62;100172.54;105716;1265;71922;-79
2022/06/15 06:21:38;;;;;;;6.00;1.30;;;;;;;19.85;55.74;100174.34;105375;1264;60861;-76
2022/06/15 06:24:26;;;;;;;6.10;1.30;;;;;;;19.91;55.30;100179.05;105423;1265;60430;-77
2022/06/15 06:27:15;;;;;;;8.00;1.30;;;;;;;19.86;55.08;100179.95;105414;1265;74579;-79
2022/06/15 06:30:04;;;;;;;7.40;1.40;;;;;;;19.80;54.92;100183.70;105435;1265;67706;-79
2022/06/15 06:32:51;;;;;;;5.50;1.20;;;;;;;19.77;55.22;100187.38;105983;1265;74490;-80
2022/06/15 06:35:37;;;;;;;7.10;1.40;;;;;;;19.78;55.18;100188.41;105453;1265;60395;-79
2022/06/15 06:38:24;;;;;;;7.00;1.50;;;;;;;19.83;54.62;100185.55;106194;1264;60437;-77
2022/06/15 06:41:13;;;;;;;6.10;1.10;;;;;;;19.88;54.46;100182.98;105243;1265;74328;-72
2022/06/15 06:44:03;;;;;;;6.60;1.40;;;;;;;20.05;53.60;100187.89;105540;1265;68299;-80
2022/06/15 06:46:52;;;;;;;5.50;1.10;;;;;;;20.06;52.78;100191.92;105489;1264;73440;-75
2022/06/15 06:49:39;;;;;;;5.60;1.20;;;;;;;20.00;52.41;100191.23;105539;1264;60607;-78
2022/06/15 06:52:26;;;;;;;7.40;1.40;;;;;;;19.90;52.04;100185.55;105132;1270;60574;-76
2022/06/15 06:55:13;;;;;;;6.00;1.10;;;;;;;19.89;51.13;100189.61;105259;1270;75475;-78
2022/06/15 06:58:00;;;;;;;8.00;1.50;;;;;;;19.79;51.25;100192.67;104890;1270;68466;-82
2022/06/15 07:00:47;;;;;;;5.70;1.10;;;;;;;19.66;51.61;100194.85;105062;1271;73274;-79
2022/06/15 07:03:34;;;;;;;6.10;1.50;;;;;;;19.53;51.81;100200.64;105034;1271;60651;-80
2022/06/15 07:06:21;;;;;;;7.40;1.50;;;;;;;19.70;51.95;100200.66;104788;1270;61438;-80
2022/06/15 07:09:09;;;;;;;7.60;1.70;;;;;;;20.07;51.19;100197.53;104745;1271;75020;-75
2022/06/15 07:11:56;;;;;;;6.30;1.20;;;;;;;20.45;50.22;100190.64;105204;1270;68761;-80
2022/06/15 07:14:42;;;;;;;5.50;1.20;;;;;;;20.66;49.78;100190.69;105241;1270;73371;-76
2022/06/15 07:17:29;;;;;;;5.50;1.30;;;;;;;21.03;49.42;100196.28;104795;1270;60534;-76
2022/06/15 07:20:18;;;;;;;5.30;1.00;;;;;;;22.05;47.62;100196.37;105398;1271;60508;-77
2022/06/15 07:23:05;;;;;;;6.30;1.80;;;;;;;22.66;45.71;100191.77;105163;1271;74568;-77
2022/06/15 07:25:51;;;;;;;6.10;1.30;;;;;;;23.29;43.42;100196.86;105194;1270;68361;-76
2022/06/15 07:28:40;;;;;;;6.60;1.20;;;;;;;23.73;41.49;100201.76;105056;1271;72733;-77
2022/06/15 07:31:41;;;;;;;5.90;1.40;;;;;;;24.28;40.54;100195.77;105599;1268;62033;-70
2022/06/15 07:34:28;;;;;;;6.30;1.30;;;;;;;25.16;38.63;100195.73;105400;1268;60714;-73
2022/06/15 07:37:15;;;;;;;6.50;1.10;;;;;;;26.14;37.40;100192.29;105527;1268;74582;-76
2022/06/15 07:40:23;;;;;;;10.50;1.20;;;;;;;27.53;35.04;100182.50;105186;1267;69404;-77
2022/06/15 07:43:11;;;;;;;5.40;1.10;;;;;;;28.48;33.22;100180.39;105089;1267;72249;-72
2022/06/15 07:45:58;;;;;;;5.00;1.00;;;;;;;29.27;31.91;100181.96;105339;1268;60542;-74
2022/06/15 07:52:01;;;;;;;6.70;0.90;;;;;;;29.91;28.58;100184.94;105457;1266;74291;-79
2022/06/15 07:54:49;;;;;;;6.30;1.20;;;;;;;30.71;27.61;100182.09;105350;1268;66702;-81
2022/06/15 07:57:36;;;;;;;5.60;0.90;;;;;;;30.95;27.22;100178.30;105794;1264;71983;-69
2022/06/15 08:00:24;;;;;;;5.80;1.00;;;;;;;31.15;26.99;100172.17;105407;1265;60424;-74
2022/06/15 08:03:15;;;;;;;7.20;0.90;;;;;;;31.57;26.08;100179.16;105529;1265;61045;-78
2022/06/15 08:06:02;;;;;;;6.30;1.00;;;;;;;31.89;25.04;100176.69;105436;1265;75644;-75
2022/06/15 08:08:49;;;;;;;5.20;0.90;;;;;;;32.08;24.59;100176.79;105613;1265;66899;-79
2022/06/15 08:12:11;;;;;;;4.00;0.70;;;;;;;32.15;25.04;100178.29;105467;1265;71887;-79
2022/06/15 08:14:58;;;;;;;5.40;0.80;;;;;;;31.56;24.74;100186.25;105639;1265;60539;-84
2022/06/15 08:17:54;;;;;;;5.00;0.90;;;;;;;31.53;25.72;100185.59;105411;1265;60553;-76
2022/06/15 08:20:56;;;;;;;4.10;0.70;;;;;;;31.56;25.48;100186.86;105264;1265;74410;-77
2022/06/15 08:23:46;;;;;;;7.30;1.00;;;;;;;31.86;24.91;100187.27;105297;1265;69418;-77
2022/06/15 08:26:37;;;;;;;5.10;0.90;;;;;;;32.08;24.00;100183.66;105077;1268;73862;-78
2022/06/15 08:29:24;;;;;;;5.80;0.80;;;;;;;31.63;23.78;100191.11;105607;1265;60554;-77
2022/06/15 08:32:15;;;;;;;4.30;0.80;;;;;;;31.48;24.37;100182.61;105791;1265;60453;-81
2022/06/15 08:35:03;;;;;;;5.90;1.00;;;;;;;31.44;24.82;100183.22;105637;1264;75554;-78
2022/06/15 08:37:51;;;;;;;3.70;0.70;;;;;;;31.44;24.42;100186.36;105571;1265;67855;-77
2022/06/15 08:41:04;;;;;;;4.30;0.80;;;;;;;30.98;24.10;100199.37;106003;1267;71390;-73
2022/06/15 08:43:58;;;;;;;4.90;0.80;;;;;;;30.82;24.72;100203.69;105745;1265;60403;-72
2022/06/15 08:47:03;;;;;;;5.00;1.00;;;;;;;30.82;24.64;100192.66;105427;1265;60439;-74
2022/06/15 08:50:33;;;;;;;5.10;0.80;;;;;;;30.98;24.76;100195.59;105476;1267;74040;-72
2022/06/15 08:53:33;;;;;;;5.90;0.80;;;;;;;30.39;25.26;100207.77;105579;1268;66515;-80
2022/06/15 08:56:43;;;;;;;4.90;0.90;;;;;;;30.71;25.07;100201.15;105500;1265;72776;-78
2022/06/15 08:59:41;;;;;;;4.20;0.80;;;;;;;31.25;24.16;100193.38;105317;1265;60544;-72
2022/06/15 09:02:52;;;;;;;4.00;0.70;;;;;;;31.18;24.32;100199.46;105700;1265;60442;-74
2022/06/15 09:06:00;;;;;;;5.10;0.80;;;;;;;31.68;24.20;100197.13;105526;1265;74468;-74
2022/06/15 09:08:57;;;;;;;4.80;0.80;;;;;;;31.77;23.74;100194.16;105576;1265;67883;-74
2022/06/15 09:15:54;;;;;;;4.70;0.80;;;;;;;30.55;25.10;100209.33;106084;1265;61021;-72
2022/06/15 09:18:50;;;;;;;5.20;0.90;;;;;;;30.01;26.03;100208.23;105642;1265;60620;-78
2022/06/15 09:22:02;;;;;;;5.20;0.80;;;;;;;29.64;26.75;100207.89;105705;1265;75317;-74
2022/06/15 09:24:52;;;;;;;6.50;0.90;;;;;;;29.20;26.99;100211.60;105991;1268;67843;-77
2022/06/15 09:27:55;;;;;;;4.10;0.90;;;;;;;29.11;27.26;100209.09;105640;1268;71782;-80
2022/06/15 09:30:44;;;;;;;5.70;1.00;;;;;;;29.22;27.01;100208.65;105644;1267;60536;-79
2022/06/15 09:33:43;;;;;;;5.30;0.90;;;;;;;29.60;27.60;100214.67;105615;1267;60388;-70
2022/06/15 09:36:39;;;;;;;6.40;1.00;;;;;;;29.81;26.63;100221.06;105674;1268;75485;-76
2022/06/15 09:39:28;;;;;;;5.90;1.00;;;;;;;29.16;27.21;100215.52;105787;1264;68620;-76
2022/06/15 09:42:26;;;;;;;5.50;1.00;;;;;;;29.43;27.61;100210.11;105654;1265;72670;-80
2022/06/15 09:45:26;;;;;;;4.70;0.80;;;;;;;29.52;27.87;100212.05;105443;1264;60497;-69
2022/06/15 09:48:22;;;;;;;5.60;1.00;;;;;;;28.75;27.56;100213.73;105511;1265;61061;-70
2022/06/15 09:51:23;;;;;;;12.00;2.00;;;;;;;28.93;27.90;100209.86;105256;1265;74645;-72
2022/06/15 09:54:20;;;;;;;6.40;1.30;;;;;;;30.01;27.05;100215.73;105430;1265;69740;-72
2022/06/15 09:57:09;;;;;;;5.20;1.10;;;;;;;30.85;25.88;100212.88;105309;1265;72575;-71
2022/06/15 09:59:57;;;;;;;6.10;1.00;;;;;;;30.99;25.52;100211.05;105423;1265;60490;-71
2022/06/15 10:02:55;;;;;;;5.70;1.50;;;;;;;30.60;25.87;100221.29;105123;1265;60372;-72
2022/06/15 10:05:44;;;;;;;11.00;5.60;;;;;;;30.70;26.21;100219.42;105165;1262;75440;-71
2022/06/15 10:08:31;;;;;;;6.90;2.00;;;;;;;31.16;25.34;100223.63;105468;1265;66450;-72
2022/06/15 10:11:44;;;;;;;6.20;1.10;;;;;;;30.71;25.57;100232.11;105607;1265;74437;-73
2022/06/15 10:14:36;;;;;;;7.00;1.20;;;;;;;30.21;26.43;100241.98;105374;1265;60355;-72
2022/06/15 10:17:35;;;;;;;5.50;1.40;;;;;;;30.40;26.41;100242.39;105085;1264;60447;-71
2022/06/15 10:20:36;;;;;;;4.60;0.80;;;;;;;29.88;26.26;100238.86;105030;1267;75623;-70
2022/06/15 10:23:36;;;;;;;7.20;1.10;;;;;;;30.59;25.85;100242.52;105332;1265;66324;-70
2022/06/15 10:26:26;;;;;;;6.90;1.00;;;;;;;31.47;24.46;100230.89;105477;1265;73624;-71
2022/06/15 10:29:15;;;;;;;5.60;1.00;;;;;;;32.12;24.57;100230.78;105685;1265;60471;-71
2022/06/15 10:32:08;;;;;;;5.40;0.90;;;;;;;31.38;24.89;100234.88;105408;1265;61928;-70
2022/06/15 10:35:05;;;;;;;6.30;1.00;;;;;;;31.17;25.37;100235.77;105418;1265;74648;-70
2022/06/15 10:37:57;;;;;;;4.20;0.80;;;;;;;31.66;23.84;100236.25;105184;1265;68493;-73
2022/06/15 10:41:45;;;;;;;6.20;1.00;;;;;;;32.07;23.15;100234.90;105353;1265;73397;-71
2022/06/15 10:44:14;;;;;;;6.00;1.20;;;;;;;32.49;22.74;100234.84;105256;1265;60547;-71
2022/06/15 10:47:18;;;;;;;5.90;1.40;;;;;;;33.01;22.51;100226.64;105284;1265;60645;-71
2022/06/15 10:50:32;;;;;;;5.00;1.00;;;;;;;31.73;23.50;100234.66;105356;1265;75534;-71
2022/06/15 10:53:48;;;;;;;4.50;0.90;;;;;;;30.24;24.72;100233.02;105528;1264;68478;-72
2022/06/15 11:03:27;;;;;;;5.90;1.20;;;;;;;30.47;25.07;100228.90;105565;1265;60547;-72
2022/06/15 11:06:14;;;;;;;4.70;1.00;;;;;;;30.34;25.58;100232.38;105566;1265;73758;-73
2022/06/15 11:09:01;;;;;;;4.90;0.80;;;;;;;30.26;23.81;100231.92;105421;1265;67511;-72
2022/06/15 11:11:51;;;;;;;5.40;1.00;;;;;;;30.13;23.92;100227.90;105474;1265;72017;-69
2022/06/15 11:15:14;;;;;;;4.80;0.80;;;;;;;30.20;24.22;100222.59;105221;1265;60474;-72
2022/06/15 11:18:04;;;;;;;6.40;1.10;;;;;;;30.03;25.32;100224.19;105432;1265;60696;-74
2022/06/15 11:21:05;;;;;;;4.70;0.90;;;;;;;29.96;26.03;100220.92;105362;1265;75370;-71
2022/06/15 11:24:05;;;;;;;5.00;1.20;;;;;;;29.52;26.66;100225.89;105384;1265;69838;-74
2022/06/15 11:27:35;;;;;;;6.20;1.20;;;;;;;29.04;27.11;100229.20;105441;1265;73391;-74
2022/06/15 11:30:32;;;;;;;6.30;1.00;;;;;;;28.98;27.00;100222.10;105600;1271;60549;-71
2022/06/15 11:33:35;;;;;;;6.30;1.10;;;;;;;28.82;27.60;100215.86;105175;1271;61492;-69
2022/06/15 11:36:32;;;;;;;6.10;1.00;;;;;;;28.27;28.46;100217.98;104954;1271;74481;-71
2022/06/15 11:39:31;;;;;;;5.00;0.90;;;;;;;27.47;29.51;100221.02;104858;1271;69016;-72
2022/06/15 11:42:18;;;;;;;4.60;0.80;;;;;;;26.88;30.68;100226.60;104682;1274;74204;-72
2022/06/15 11:45:14;;;;;;;5.70;1.00;;;;;;;26.55;31.57;100230.33;104646;1274;60745;-72
2022/06/15 11:48:17;;;;;;;6.20;1.00;;;;;;;26.22;31.42;100228.80;104559;1274;60578;-71
2022/06/15 11:52:03;;;;;;;5.20;1.00;;;;;;;25.79;32.07;100223.81;104893;1274;74677;-71
2022/06/15 11:55:14;;;;;;;5.20;1.10;;;;;;;25.18;33.33;100226.69;104780;1273;68545;-72
2022/06/15 11:58:38;;;;;;;7.40;1.20;;;;;;;24.59;34.33;100223.69;104868;1274;71783;-74
2022/06/15 12:01:49;;;;;;;5.50;1.00;;;;;;;24.26;34.71;100215.42;104609;1274;60413;-75
2022/06/15 12:04:54;;;;;;;5.50;1.10;;;;;;;24.06;35.32;100214.13;104979;1269;62002;-74
2022/06/15 12:07:59;;;;;;;5.20;1.40;;;;;;;23.71;36.31;100217.56;105029;1268;75505;-73
2022/06/15 12:12:37;;;;;;;5.10;1.10;;;;;;;23.60;37.13;100208.02;105441;1270;68409;-72
2022/06/15 12:14:38;;;;;;;5.80;1.00;;;;;;;23.33;37.78;100213.67;105682;1265;72105;-74
2022/06/15 12:17:51;;;;;;;7.80;1.30;;;;;;;23.11;38.21;100218.31;105186;1265;60450;-72
2022/06/15 12:21:03;;;;;;;8.40;1.30;;;;;;;22.88;38.37;100222.10;105435;1265;60526;-73
2022/06/15 12:24:20;;;;;;;5.00;1.00;;;;;;;22.69;38.51;100222.33;105565;1265;75524;-73
2022/06/15 12:27:58;;;;;;;4.70;1.10;;;;;;;22.70;38.74;100220.82;105587;1264;68652;-73
2022/06/15 12:30:53;;;;;;;5.00;1.10;;;;;;;22.75;39.66;100220.91;105222;1271;73807;-71
2022/06/15 12:34:02;;;;;;;7.00;1.30;;;;;;;22.94;39.41;100210.63;104787;1271;60663;-72
2022/06/15 12:37:00;;;;;;;5.40;1.00;;;;;;;22.95;39.26;100208.25;104816;1274;61019;-72
2022/06/15 12:40:50;;;;;;;6.60;1.50;;;;;;;22.78;39.59;100211.75;104980;1271;73753;-72
2022/06/15 12:43:43;;;;;;;5.60;1.40;;;;;;;22.62;39.85;100220.59;105006;1271;65601;-73
2022/06/15 12:46:35;;;;;;;6.00;1.30;;;;;;;22.67;39.31;100212.23;104836;1271;72108;-71
2022/06/15 12:50:15;;;;;;;5.60;1.00;;;;;;;22.52;39.21;100212.90;104877;1271;59950;-72
2022/06/15 12:53:20;;;;;;;6.00;1.10;;;;;;;22.49;40.13;100207.95;104865;1271;62022;-72
2022/06/15 12:56:16;;;;;;;6.60;1.20;;;;;;;22.40;40.08;100207.48;104944;1271;71555;-72
2022/06/15 12:59:51;;;;;;;5.90;1.30;;;;;;;22.31;40.38;100210.67;104897;1271;68445;-73
2022/06/15 13:02:56;;;;;;;5.40;1.00;;;;;;;22.16;40.09;100210.34;104863;1271;73320;-73
2022/06/15 13:05:43;;;;;;;8.00;1.20;;;;;;;22.04;40.62;100219.00;105328;1265;60443;-71
2022/06/15 13:08:35;;;;;;;5.20;0.90;;;;;;;21.89;41.18;100216.77;105374;1265;60484;-69
2022/06/15 13:11:22;;;;;;;7.10;1.30;;;;;;;21.93;41.04;100211.04;105403;1265;74940;-72
2022/06/15 13:14:18;;;;;;;5.20;1.20;;;;;;;22.04;41.35;100208.70;105408;1265;68058;-71
2022/06/15 13:17:18;;;;;;;7.20;1.30;;;;;;;22.24;41.01;100205.88;105494;1265;73195;-71
2022/06/15 13:20:10;;;;;;;6.10;1.50;;;;;;;22.41;41.10;100205.08;105200;1265;60558;-72
2022/06/15 13:22:57;;;;;;;5.10;1.10;;;;;;;22.56;40.54;100208.94;105229;1265;62593;-72
2022/06/15 13:26:02;;;;;;;5.10;1.10;;;;;;;22.71;40.27;100207.14;105278;1265;74829;-71
2022/06/15 13:28:58;;;;;;;6.20;1.10;;;;;;;22.77;39.91;100204.73;105235;1265;66625;-74
2022/06/15 13:31:52;;;;;;;5.40;1.20;;;;;;;22.75;39.18;100209.14;105410;1265;73364;-72
2022/06/15 13:34:39;;;;;;;5.80;1.10;;;;;;;22.74;39.65;100216.85;105243;1265;60527;-73
2022/06/15 13:37:30;;;;;;;5.10;1.10;;;;;;;22.75;39.55;100211.64;105241;1265;60976;-72